sensor_id;sensor_type;location;lat;lon;timestamp;P1;durP1;ratioP1;P2;durP2;ratioP2
13321;SDS011;6730;46.248;6.930;2023-04-03T00:02:07;0.75;;;0.55;;
13321;SDS011;6730;46.248;6.930;2023-04-03T00:04:33;1.00;;;0.90;;
13321;SDS011;6730;46.248;6.930;2023-04-03T00:06:58;0.60;;;0.60;;
13321;SDS011;6730;46.248;6.930;2023-04-03T00:09:24;0.60;;;0.60;;
13321;SDS011;6730;46.248;6.930;2023-04-03T00:11:50;1.23;;;0.77;;
13321;SDS011;6730;46.248;6.930;2023-04-03T00:14:15;0.50;;;0.50;;
13321;SDS011;6730;46.248;6.930;2023-04-03T00:16:41;0.70;;;0.70;;
13321;SDS011;6730;46.248;6.930;2023-04-03T00:19:07;0.60;;;0.60;;
13321;SDS011;6730;46.248;6.930;2023-04-03T00:21:33;0.60;;;0.60;;
13321;SDS011;6730;46.248;6.930;2023-04-03T00:23:58;0.60;;;0.60;;
13321;SDS011;6730;46.248;6.930;2023-04-03T00:26:24;0.50;;;0.50;;
13321;SDS011;6730;46.248;6.930;2023-04-03T00:28:50;1.20;;;0.60;;
13321;SDS011;6730;46.248;6.930;2023-04-03T00:31:16;0.65;;;0.50;;
13321;SDS011;6730;46.248;6.930;2023-04-03T00:33:41;1.10;;;0.77;;
13321;SDS011;6730;46.248;6.930;2023-04-03T00:36:11;1.17;;;0.70;;
13321;SDS011;6730;46.248;6.930;2023-04-03T00:38:38;0.50;;;0.50;;
13321;SDS011;6730;46.248;6.930;2023-04-03T00:41:04;0.50;;;0.50;;
13321;SDS011;6730;46.248;6.930;2023-04-03T00:43:31;0.60;;;0.60;;
13321;SDS011;6730;46.248;6.930;2023-04-03T00:45:57;0.68;;;0.68;;
13321;SDS011;6730;46.248;6.930;2023-04-03T00:51:02;0.60;;;0.60;;
13321;SDS011;6730;46.248;6.930;2023-04-03T00:53:31;0.83;;;0.70;;
13321;SDS011;6730;46.248;6.930;2023-04-03T00:56:02;0.70;;;0.70;;
13321;SDS011;6730;46.248;6.930;2023-04-03T00:58:33;1.50;;;1.40;;
13321;SDS011;6730;46.248;6.930;2023-04-03T01:01:05;2.27;;;1.90;;
13321;SDS011;6730;46.248;6.930;2023-04-03T01:03:33;1.50;;;1.40;;
13321;SDS011;6730;46.248;6.930;2023-04-03T01:05:59;1.73;;;1.20;;
13321;SDS011;6730;46.248;6.930;2023-04-03T01:08:25;2.03;;;1.00;;
13321;SDS011;6730;46.248;6.930;2023-04-03T01:10:51;1.10;;;1.00;;
13321;SDS011;6730;46.248;6.930;2023-04-03T01:13:18;1.20;;;1.10;;
13321;SDS011;6730;46.248;6.930;2023-04-03T01:15:45;1.67;;;1.58;;
13321;SDS011;6730;46.248;6.930;2023-04-03T01:18:11;1.30;;;1.20;;
13321;SDS011;6730;46.248;6.930;2023-04-03T01:20:42;2.00;;;1.47;;
13321;SDS011;6730;46.248;6.930;2023-04-03T01:25:58;1.40;;;1.23;;
13321;SDS011;6730;46.248;6.930;2023-04-03T01:33:35;2.40;;;1.60;;
13321;SDS011;6730;46.248;6.930;2023-04-03T01:36:02;1.35;;;1.25;;
13321;SDS011;6730;46.248;6.930;2023-04-03T01:38:28;1.77;;;1.60;;
13321;SDS011;6730;46.248;6.930;2023-04-03T01:40:54;1.55;;;1.20;;
13321;SDS011;6730;46.248;6.930;2023-04-03T01:43:20;0.95;;;0.90;;
13321;SDS011;6730;46.248;6.930;2023-04-03T01:45:45;1.25;;;1.15;;
13321;SDS011;6730;46.248;6.930;2023-04-03T01:48:11;1.13;;;1.00;;
13321;SDS011;6730;46.248;6.930;2023-04-03T01:50:38;1.08;;;0.80;;
13321;SDS011;6730;46.248;6.930;2023-04-03T01:53:04;0.93;;;0.77;;
13321;SDS011;6730;46.248;6.930;2023-04-03T01:55:30;1.20;;;1.10;;
13321;SDS011;6730;46.248;6.930;2023-04-03T01:57:55;1.07;;;0.97;;
13321;SDS011;6730;46.248;6.930;2023-04-03T02:00:21;1.50;;;1.40;;
13321;SDS011;6730;46.248;6.930;2023-04-03T02:02:47;1.03;;;0.93;;
13321;SDS011;6730;46.248;6.930;2023-04-03T02:05:12;1.00;;;0.90;;
13321;SDS011;6730;46.248;6.930;2023-04-03T02:07:38;1.25;;;1.00;;
13321;SDS011;6730;46.248;6.930;2023-04-03T02:10:04;1.38;;;1.25;;
13321;SDS011;6730;46.248;6.930;2023-04-03T02:12:30;2.03;;;1.83;;
13321;SDS011;6730;46.248;6.930;2023-04-03T02:14:56;1.65;;;1.55;;
13321;SDS011;6730;46.248;6.930;2023-04-03T02:17:21;1.63;;;1.38;;
13321;SDS011;6730;46.248;6.930;2023-04-03T02:19:47;1.60;;;1.33;;
13321;SDS011;6730;46.248;6.930;2023-04-03T02:22:13;1.33;;;1.23;;
13321;SDS011;6730;46.248;6.930;2023-04-03T02:24:38;1.47;;;1.37;;
13321;SDS011;6730;46.248;6.930;2023-04-03T02:27:05;1.52;;;1.30;;
13321;SDS011;6730;46.248;6.930;2023-04-03T02:29:31;1.40;;;1.23;;
13321;SDS011;6730;46.248;6.930;2023-04-03T02:31:56;1.30;;;1.20;;
13321;SDS011;6730;46.248;6.930;2023-04-03T02:34:22;1.87;;;1.20;;
13321;SDS011;6730;46.248;6.930;2023-04-03T02:36:48;1.23;;;1.03;;
13321;SDS011;6730;46.248;6.930;2023-04-03T02:39:13;1.30;;;1.20;;
13321;SDS011;6730;46.248;6.930;2023-04-03T02:41:39;2.38;;;1.70;;
13321;SDS011;6730;46.248;6.930;2023-04-03T02:44:05;1.70;;;1.57;;
13321;SDS011;6730;46.248;6.930;2023-04-03T02:46:32;1.10;;;1.00;;
13321;SDS011;6730;46.248;6.930;2023-04-03T02:48:58;3.40;;;3.00;;
13321;SDS011;6730;46.248;6.930;2023-04-03T02:51:23;2.80;;;2.28;;
13321;SDS011;6730;46.248;6.930;2023-04-03T02:53:49;3.42;;;2.92;;
13321;SDS011;6730;46.248;6.930;2023-04-03T02:56:15;1.53;;;1.40;;
13321;SDS011;6730;46.248;6.930;2023-04-03T02:58:43;2.47;;;1.48;;
13321;SDS011;6730;46.248;6.930;2023-04-03T03:01:09;1.52;;;1.42;;
13321;SDS011;6730;46.248;6.930;2023-04-03T03:03:35;2.20;;;1.80;;
13321;SDS011;6730;46.248;6.930;2023-04-03T03:06:02;1.52;;;1.42;;
13321;SDS011;6730;46.248;6.930;2023-04-03T03:08:29;2.00;;;1.45;;
13321;SDS011;6730;46.248;6.930;2023-04-03T03:10:55;1.45;;;1.35;;
13321;SDS011;6730;46.248;6.930;2023-04-03T03:13:21;1.77;;;1.67;;
13321;SDS011;6730;46.248;6.930;2023-04-03T03:15:46;4.25;;;1.98;;
13321;SDS011;6730;46.248;6.930;2023-04-03T03:18:12;2.70;;;2.38;;
13321;SDS011;6730;46.248;6.930;2023-04-03T03:20:38;1.20;;;1.10;;
13321;SDS011;6730;46.248;6.930;2023-04-03T03:23:03;2.13;;;1.85;;
13321;SDS011;6730;46.248;6.930;2023-04-03T03:25:29;2.00;;;1.67;;
13321;SDS011;6730;46.248;6.930;2023-04-03T03:27:54;1.20;;;1.10;;
13321;SDS011;6730;46.248;6.930;2023-04-03T03:30:20;1.73;;;1.60;;
13321;SDS011;6730;46.248;6.930;2023-04-03T03:32:46;1.92;;;1.63;;
13321;SDS011;6730;46.248;6.930;2023-04-03T03:35:11;2.97;;;2.35;;
13321;SDS011;6730;46.248;6.930;2023-04-03T03:37:37;4.78;;;2.80;;
13321;SDS011;6730;46.248;6.930;2023-04-03T03:40:03;3.28;;;2.78;;
13321;SDS011;6730;46.248;6.930;2023-04-03T03:42:29;6.30;;;3.22;;
13321;SDS011;6730;46.248;6.930;2023-04-03T03:44:54;1.35;;;1.25;;
13321;SDS011;6730;46.248;6.930;2023-04-03T03:47:20;1.77;;;1.67;;
13321;SDS011;6730;46.248;6.930;2023-04-03T03:49:46;1.93;;;1.77;;
13321;SDS011;6730;46.248;6.930;2023-04-03T03:52:11;2.70;;;2.50;;
13321;SDS011;6730;46.248;6.930;2023-04-03T03:54:37;3.33;;;3.03;;
13321;SDS011;6730;46.248;6.930;2023-04-03T03:57:03;2.23;;;2.03;;
13321;SDS011;6730;46.248;6.930;2023-04-03T03:59:30;3.35;;;2.72;;
13321;SDS011;6730;46.248;6.930;2023-04-03T04:01:55;4.83;;;2.73;;
13321;SDS011;6730;46.248;6.930;2023-04-03T04:04:21;2.57;;;2.33;;
13321;SDS011;6730;46.248;6.930;2023-04-03T04:06:47;3.50;;;2.50;;
13321;SDS011;6730;46.248;6.930;2023-04-03T04:09:12;2.95;;;2.67;;
13321;SDS011;6730;46.248;6.930;2023-04-03T04:11:38;7.93;;;6.17;;
13321;SDS011;6730;46.248;6.930;2023-04-03T04:14:05;3.13;;;2.50;;
13321;SDS011;6730;46.248;6.930;2023-04-03T04:16:31;2.23;;;2.03;;
13321;SDS011;6730;46.248;6.930;2023-04-03T04:18:57;4.05;;;3.22;;
13321;SDS011;6730;46.248;6.930;2023-04-03T04:21:22;3.10;;;2.63;;
13321;SDS011;6730;46.248;6.930;2023-04-03T04:23:48;3.53;;;2.43;;
13321;SDS011;6730;46.248;6.930;2023-04-03T04:26:14;2.93;;;2.60;;
13321;SDS011;6730;46.248;6.930;2023-04-03T04:28:39;3.23;;;2.93;;
13321;SDS011;6730;46.248;6.930;2023-04-03T04:31:05;5.70;;;3.17;;
13321;SDS011;6730;46.248;6.930;2023-04-03T04:33:31;4.10;;;3.38;;
13321;SDS011;6730;46.248;6.930;2023-04-03T04:35:56;3.40;;;2.88;;
13321;SDS011;6730;46.248;6.930;2023-04-03T04:38:22;7.80;;;4.00;;
13321;SDS011;6730;46.248;6.930;2023-04-03T04:40:48;4.93;;;4.00;;
13321;SDS011;6730;46.248;6.930;2023-04-03T04:43:14;4.97;;;3.63;;
13321;SDS011;6730;46.248;6.930;2023-04-03T04:45:40;3.43;;;3.07;;
13321;SDS011;6730;46.248;6.930;2023-04-03T04:48:06;3.00;;;2.70;;
13321;SDS011;6730;46.248;6.930;2023-04-03T04:50:32;2.63;;;2.40;;
13321;SDS011;6730;46.248;6.930;2023-04-03T04:52:58;3.80;;;2.57;;
13321;SDS011;6730;46.248;6.930;2023-04-03T04:55:23;3.88;;;2.97;;
13321;SDS011;6730;46.248;6.930;2023-04-03T04:57:49;4.93;;;3.27;;
13321;SDS011;6730;46.248;6.930;2023-04-03T05:00:15;3.43;;;2.83;;
13321;SDS011;6730;46.248;6.930;2023-04-03T05:02:41;4.50;;;3.40;;
13321;SDS011;6730;46.248;6.930;2023-04-03T05:05:07;3.80;;;3.35;;
13321;SDS011;6730;46.248;6.930;2023-04-03T05:07:33;3.87;;;3.17;;
13321;SDS011;6730;46.248;6.930;2023-04-03T05:10:00;3.67;;;2.97;;
13321;SDS011;6730;46.248;6.930;2023-04-03T05:12:27;4.27;;;2.87;;
13321;SDS011;6730;46.248;6.930;2023-04-03T05:14:53;4.18;;;3.35;;
13321;SDS011;6730;46.248;6.930;2023-04-03T05:17:19;5.07;;;3.03;;
13321;SDS011;6730;46.248;6.930;2023-04-03T05:19:45;3.20;;;2.90;;
13321;SDS011;6730;46.248;6.930;2023-04-03T05:22:10;4.30;;;3.57;;
13321;SDS011;6730;46.248;6.930;2023-04-03T05:24:36;4.33;;;3.47;;
13321;SDS011;6730;46.248;6.930;2023-04-03T05:27:02;7.20;;;3.37;;
13321;SDS011;6730;46.248;6.930;2023-04-03T05:29:27;4.80;;;3.33;;
13321;SDS011;6730;46.248;6.930;2023-04-03T05:31:53;3.77;;;3.00;;
13321;SDS011;6730;46.248;6.930;2023-04-03T05:34:19;4.30;;;3.10;;
13321;SDS011;6730;46.248;6.930;2023-04-03T05:36:44;5.32;;;4.10;;
13321;SDS011;6730;46.248;6.930;2023-04-03T05:39:10;4.07;;;3.43;;
13321;SDS011;6730;46.248;6.930;2023-04-03T05:41:36;6.80;;;4.03;;
13321;SDS011;6730;46.248;6.930;2023-04-03T05:44:02;3.92;;;3.45;;
13321;SDS011;6730;46.248;6.930;2023-04-03T05:46:27;6.60;;;3.95;;
13321;SDS011;6730;46.248;6.930;2023-04-03T05:48:53;4.15;;;3.55;;
13321;SDS011;6730;46.248;6.930;2023-04-03T05:51:21;6.25;;;4.47;;
13321;SDS011;6730;46.248;6.930;2023-04-03T05:53:56;5.50;;;4.10;;
13321;SDS011;6730;46.248;6.930;2023-04-03T05:56:27;4.70;;;4.20;;
13321;SDS011;6730;46.248;6.930;2023-04-03T05:58:53;4.93;;;3.97;;
13321;SDS011;6730;46.248;6.930;2023-04-03T06:01:20;4.10;;;3.27;;
13321;SDS011;6730;46.248;6.930;2023-04-03T06:03:46;32.00;;;6.73;;
13321;SDS011;6730;46.248;6.930;2023-04-03T06:06:12;25.33;;;6.28;;
13321;SDS011;6730;46.248;6.930;2023-04-03T06:08:39;8.30;;;4.20;;
13321;SDS011;6730;46.248;6.930;2023-04-03T06:11:05;3.47;;;2.67;;
13321;SDS011;6730;46.248;6.930;2023-04-03T06:13:30;4.97;;;3.73;;
13321;SDS011;6730;46.248;6.930;2023-04-03T06:15:56;5.43;;;4.47;;
13321;SDS011;6730;46.248;6.930;2023-04-03T06:18:23;6.00;;;4.27;;
13321;SDS011;6730;46.248;6.930;2023-04-03T06:20:49;4.80;;;3.90;;
13321;SDS011;6730;46.248;6.930;2023-04-03T06:23:14;6.53;;;4.60;;
13321;SDS011;6730;46.248;6.930;2023-04-03T06:25:40;7.63;;;5.47;;
13321;SDS011;6730;46.248;6.930;2023-04-03T06:28:07;5.83;;;5.10;;
13321;SDS011;6730;46.248;6.930;2023-04-03T06:30:35;7.13;;;4.60;;
13321;SDS011;6730;46.248;6.930;2023-04-03T06:33:01;6.23;;;4.57;;
13321;SDS011;6730;46.248;6.930;2023-04-03T06:35:30;6.63;;;4.00;;
13321;SDS011;6730;46.248;6.930;2023-04-03T06:37:56;4.97;;;4.30;;
13321;SDS011;6730;46.248;6.930;2023-04-03T06:40:23;5.90;;;4.20;;
13321;SDS011;6730;46.248;6.930;2023-04-03T06:42:54;5.57;;;4.50;;
13321;SDS011;6730;46.248;6.930;2023-04-03T06:45:19;7.07;;;4.65;;
13321;SDS011;6730;46.248;6.930;2023-04-03T06:47:46;6.60;;;4.70;;
13321;SDS011;6730;46.248;6.930;2023-04-03T06:50:12;6.88;;;5.13;;
13321;SDS011;6730;46.248;6.930;2023-04-03T06:52:39;6.50;;;4.80;;
13321;SDS011;6730;46.248;6.930;2023-04-03T06:55:06;5.22;;;4.40;;
13321;SDS011;6730;46.248;6.930;2023-04-03T06:57:33;5.65;;;4.90;;
13321;SDS011;6730;46.248;6.930;2023-04-03T06:59:58;6.53;;;5.40;;
13321;SDS011;6730;46.248;6.930;2023-04-03T07:02:24;5.50;;;4.53;;
13321;SDS011;6730;46.248;6.930;2023-04-03T07:04:51;6.97;;;4.72;;
13321;SDS011;6730;46.248;6.930;2023-04-03T07:07:16;4.80;;;4.30;;
13321;SDS011;6730;46.248;6.930;2023-04-03T07:09:42;7.63;;;4.60;;
13321;SDS011;6730;46.248;6.930;2023-04-03T07:12:08;5.53;;;4.18;;
13321;SDS011;6730;46.248;6.930;2023-04-03T07:14:34;4.30;;;3.57;;
13321;SDS011;6730;46.248;6.930;2023-04-03T07:17:00;6.33;;;3.80;;
13321;SDS011;6730;46.248;6.930;2023-04-03T07:19:25;5.03;;;4.43;;
13321;SDS011;6730;46.248;6.930;2023-04-03T07:21:53;4.70;;;3.90;;
13321;SDS011;6730;46.248;6.930;2023-04-03T07:24:18;3.90;;;3.50;;
13321;SDS011;6730;46.248;6.930;2023-04-03T07:26:48;5.20;;;3.20;;
13321;SDS011;6730;46.248;6.930;2023-04-03T07:29:14;3.15;;;2.85;;
13321;SDS011;6730;46.248;6.930;2023-04-03T07:31:40;3.08;;;2.78;;
13321;SDS011;6730;46.248;6.930;2023-04-03T07:34:06;3.83;;;2.80;;
13321;SDS011;6730;46.248;6.930;2023-04-03T07:36:32;5.10;;;3.40;;
13321;SDS011;6730;46.248;6.930;2023-04-03T07:38:58;3.28;;;2.97;;
13321;SDS011;6730;46.248;6.930;2023-04-03T07:41:24;2.88;;;2.58;;
13321;SDS011;6730;46.248;6.930;2023-04-03T07:43:49;3.50;;;3.20;;
13321;SDS011;6730;46.248;6.930;2023-04-03T07:46:15;3.70;;;3.10;;
13321;SDS011;6730;46.248;6.930;2023-04-03T07:48:42;3.95;;;3.15;;
13321;SDS011;6730;46.248;6.930;2023-04-03T07:51:09;3.80;;;3.10;;
13321;SDS011;6730;46.248;6.930;2023-04-03T07:53:35;5.55;;;3.83;;
13321;SDS011;6730;46.248;6.930;2023-04-03T07:56:01;4.32;;;3.65;;
13321;SDS011;6730;46.248;6.930;2023-04-03T07:58:27;6.05;;;4.22;;
13321;SDS011;6730;46.248;6.930;2023-04-03T08:00:54;4.65;;;3.50;;
13321;SDS011;6730;46.248;6.930;2023-04-03T08:03:19;6.63;;;4.18;;
13321;SDS011;6730;46.248;6.930;2023-04-03T08:05:46;4.13;;;3.22;;
13321;SDS011;6730;46.248;6.930;2023-04-03T08:08:14;5.75;;;3.20;;
13321;SDS011;6730;46.248;6.930;2023-04-03T08:10:42;4.35;;;3.47;;
13321;SDS011;6730;46.248;6.930;2023-04-03T08:13:08;4.20;;;2.87;;
13321;SDS011;6730;46.248;6.930;2023-04-03T08:15:34;5.13;;;4.15;;
13321;SDS011;6730;46.248;6.930;2023-04-03T08:18:01;4.70;;;3.47;;
13321;SDS011;6730;46.248;6.930;2023-04-03T08:20:27;3.15;;;2.53;;
13321;SDS011;6730;46.248;6.930;2023-04-03T08:22:53;6.70;;;3.67;;
13321;SDS011;6730;46.248;6.930;2023-04-03T08:25:19;3.23;;;2.70;;
13321;SDS011;6730;46.248;6.930;2023-04-03T08:27:45;5.13;;;3.13;;
13321;SDS011;6730;46.248;6.930;2023-04-03T08:30:11;4.10;;;2.87;;
13321;SDS011;6730;46.248;6.930;2023-04-03T08:32:37;3.10;;;2.60;;
13321;SDS011;6730;46.248;6.930;2023-04-03T08:35:03;3.20;;;2.90;;
13321;SDS011;6730;46.248;6.930;2023-04-03T08:37:30;3.07;;;2.77;;
13321;SDS011;6730;46.248;6.930;2023-04-03T08:39:55;3.35;;;3.05;;
13321;SDS011;6730;46.248;6.930;2023-04-03T08:45:01;5.05;;;3.50;;
13321;SDS011;6730;46.248;6.930;2023-04-03T08:47:44;3.63;;;3.10;;
13321;SDS011;6730;46.248;6.930;2023-04-03T08:50:20;3.78;;;3.15;;
13321;SDS011;6730;46.248;6.930;2023-04-03T08:52:56;3.83;;;3.53;;
13321;SDS011;6730;46.248;6.930;2023-04-03T08:58:12;3.42;;;3.13;;
13321;SDS011;6730;46.248;6.930;2023-04-03T09:00:46;3.35;;;2.78;;
13321;SDS011;6730;46.248;6.930;2023-04-03T09:03:14;3.50;;;3.05;;
13321;SDS011;6730;46.248;6.930;2023-04-03T09:05:45;3.05;;;2.75;;
13321;SDS011;6730;46.248;6.930;2023-04-03T09:10:44;3.10;;;2.80;;
13321;SDS011;6730;46.248;6.930;2023-04-03T09:13:18;3.23;;;2.93;;
13321;SDS011;6730;46.248;6.930;2023-04-03T09:15:52;2.57;;;2.37;;
13321;SDS011;6730;46.248;6.930;2023-04-03T09:23:43;2.92;;;2.67;;
13321;SDS011;6730;46.248;6.930;2023-04-03T09:28:54;3.70;;;3.40;;
13321;SDS011;6730;46.248;6.930;2023-04-03T09:31:25;3.53;;;3.22;;
13321;SDS011;6730;46.248;6.930;2023-04-03T09:33:55;4.43;;;3.77;;
13321;SDS011;6730;46.248;6.930;2023-04-03T09:36:45;3.40;;;3.10;;
13321;SDS011;6730;46.248;6.930;2023-04-03T09:39:14;3.80;;;3.40;;
13321;SDS011;6730;46.248;6.930;2023-04-03T09:41:42;4.45;;;3.63;;
13321;SDS011;6730;46.248;6.930;2023-04-03T09:44:21;3.37;;;2.97;;
13321;SDS011;6730;46.248;6.930;2023-04-03T09:46:49;3.30;;;3.00;;
13321;SDS011;6730;46.248;6.930;2023-04-03T09:49:15;3.73;;;3.33;;
13321;SDS011;6730;46.248;6.930;2023-04-03T09:51:42;3.72;;;3.30;;
13321;SDS011;6730;46.248;6.930;2023-04-03T09:56:50;3.63;;;3.10;;
13321;SDS011;6730;46.248;6.930;2023-04-03T09:59:16;3.43;;;3.13;;
13321;SDS011;6730;46.248;6.930;2023-04-03T10:01:43;3.90;;;3.40;;
13321;SDS011;6730;46.248;6.930;2023-04-03T10:04:22;3.77;;;3.40;;
13321;SDS011;6730;46.248;6.930;2023-04-03T10:06:50;3.88;;;3.33;;
13321;SDS011;6730;46.248;6.930;2023-04-03T10:12:05;3.08;;;2.78;;
13321;SDS011;6730;46.248;6.930;2023-04-03T10:14:35;4.43;;;3.07;;
13321;SDS011;6730;46.248;6.930;2023-04-03T10:19:49;4.77;;;3.57;;
13321;SDS011;6730;46.248;6.930;2023-04-03T10:22:27;6.23;;;2.53;;
13321;SDS011;6730;46.248;6.930;2023-04-03T10:38:08;3.20;;;2.90;;
13321;SDS011;6730;46.248;6.930;2023-04-03T10:55:36;3.10;;;2.80;;
13321;SDS011;6730;46.248;6.930;2023-04-03T10:58:04;3.10;;;2.80;;
13321;SDS011;6730;46.248;6.930;2023-04-03T11:00:41;2.63;;;2.42;;
13321;SDS011;6730;46.248;6.930;2023-04-03T11:03:14;4.32;;;3.20;;
13321;SDS011;6730;46.248;6.930;2023-04-03T11:05:50;3.55;;;2.80;;
13321;SDS011;6730;46.248;6.930;2023-04-03T11:08:24;3.88;;;3.30;;
13321;SDS011;6730;46.248;6.930;2023-04-03T11:10:57;4.05;;;3.20;;
13321;SDS011;6730;46.248;6.930;2023-04-03T11:13:28;3.38;;;2.88;;
13321;SDS011;6730;46.248;6.930;2023-04-03T11:15:58;3.88;;;3.13;;
13321;SDS011;6730;46.248;6.930;2023-04-03T11:20:58;3.20;;;2.90;;
13321;SDS011;6730;46.248;6.930;2023-04-03T11:23:36;2.85;;;2.60;;
13321;SDS011;6730;46.248;6.930;2023-04-03T11:26:07;4.20;;;2.60;;
13321;SDS011;6730;46.248;6.930;2023-04-03T11:28:33;3.08;;;2.78;;
13321;SDS011;6730;46.248;6.930;2023-04-03T11:31:02;2.90;;;2.70;;
13321;SDS011;6730;46.248;6.930;2023-04-03T11:36:44;2.50;;;2.30;;
13321;SDS011;6730;46.248;6.930;2023-04-03T11:39:19;3.10;;;2.80;;
13321;SDS011;6730;46.248;6.930;2023-04-03T11:41:50;3.25;;;2.72;;
13321;SDS011;6730;46.248;6.930;2023-04-03T11:44:34;2.92;;;2.63;;
13321;SDS011;6730;46.248;6.930;2023-04-03T11:47:02;2.70;;;2.50;;
13321;SDS011;6730;46.248;6.930;2023-04-03T12:05:51;3.47;;;3.17;;
13321;SDS011;6730;46.248;6.930;2023-04-03T12:11:24;3.55;;;2.90;;
13321;SDS011;6730;46.248;6.930;2023-04-03T12:16:21;26.83;;;5.53;;
13321;SDS011;6730;46.248;6.930;2023-04-03T12:21:20;3.28;;;2.97;;
13321;SDS011;6730;46.248;6.930;2023-04-03T12:45:59;5.75;;;2.83;;
13321;SDS011;6730;46.248;6.930;2023-04-03T12:48:28;2.97;;;2.78;;
13321;SDS011;6730;46.248;6.930;2023-04-03T12:50:56;2.70;;;2.50;;
13321;SDS011;6730;46.248;6.930;2023-04-03T12:53:27;3.33;;;3.00;;
13321;SDS011;6730;46.248;6.930;2023-04-03T12:58:49;4.38;;;2.90;;
13321;SDS011;6730;46.248;6.930;2023-04-03T13:01:16;3.13;;;2.83;;
13321;SDS011;6730;46.248;6.930;2023-04-03T13:03:47;3.20;;;2.90;;
13321;SDS011;6730;46.248;6.930;2023-04-03T13:06:21;3.10;;;2.80;;
13321;SDS011;6730;46.248;6.930;2023-04-03T13:08:54;3.00;;;2.73;;
13321;SDS011;6730;46.248;6.930;2023-04-03T13:11:38;3.08;;;2.78;;
13321;SDS011;6730;46.248;6.930;2023-04-03T13:14:17;3.30;;;2.57;;
13321;SDS011;6730;46.248;6.930;2023-04-03T13:19:30;2.88;;;2.30;;
13321;SDS011;6730;46.248;6.930;2023-04-03T13:22:01;3.83;;;3.20;;
13321;SDS011;6730;46.248;6.930;2023-04-03T13:24:29;3.10;;;2.72;;
13321;SDS011;6730;46.248;6.930;2023-04-03T13:26:58;2.90;;;2.70;;
13321;SDS011;6730;46.248;6.930;2023-04-03T13:29:29;3.45;;;2.92;;
13321;SDS011;6730;46.248;6.930;2023-04-03T13:31:56;2.97;;;2.67;;
13321;SDS011;6730;46.248;6.930;2023-04-03T13:34:26;3.70;;;2.93;;
13321;SDS011;6730;46.248;6.930;2023-04-03T13:39:25;3.80;;;3.17;;
13321;SDS011;6730;46.248;6.930;2023-04-03T13:42:15;3.20;;;2.90;;
13321;SDS011;6730;46.248;6.930;2023-04-03T13:44:46;4.57;;;3.20;;
13321;SDS011;6730;46.248;6.930;2023-04-03T13:50:03;14.38;;;3.90;;
13321;SDS011;6730;46.248;6.930;2023-04-03T13:52:43;3.13;;;2.78;;
13321;SDS011;6730;46.248;6.930;2023-04-03T13:57:57;3.28;;;2.83;;
13321;SDS011;6730;46.248;6.930;2023-04-03T14:02:58;3.67;;;2.80;;
13321;SDS011;6730;46.248;6.930;2023-04-03T14:05:23;3.72;;;3.30;;
13321;SDS011;6730;46.248;6.930;2023-04-03T14:07:51;5.73;;;3.30;;
13321;SDS011;6730;46.248;6.930;2023-04-03T14:10:17;2.80;;;2.60;;
13321;SDS011;6730;46.248;6.930;2023-04-03T14:12:43;3.97;;;3.20;;
13321;SDS011;6730;46.248;6.930;2023-04-03T14:15:18;3.77;;;3.43;;
13321;SDS011;6730;46.248;6.930;2023-04-03T14:17:53;3.13;;;2.83;;
13321;SDS011;6730;46.248;6.930;2023-04-03T14:20:21;3.28;;;2.97;;
13321;SDS011;6730;46.248;6.930;2023-04-03T14:22:49;3.92;;;2.72;;
13321;SDS011;6730;46.248;6.930;2023-04-03T14:25:16;4.07;;;3.45;;
13321;SDS011;6730;46.248;6.930;2023-04-03T14:27:44;3.57;;;2.80;;
13321;SDS011;6730;46.248;6.930;2023-04-03T14:30:14;3.60;;;2.85;;
13321;SDS011;6730;46.248;6.930;2023-04-03T14:32:45;3.63;;;2.83;;
13321;SDS011;6730;46.248;6.930;2023-04-03T14:35:12;3.20;;;2.83;;
13321;SDS011;6730;46.248;6.930;2023-04-03T14:37:39;3.63;;;3.13;;
13321;SDS011;6730;46.248;6.930;2023-04-03T14:40:06;4.35;;;3.17;;
13321;SDS011;6730;46.248;6.930;2023-04-03T14:42:35;4.72;;;3.88;;
13321;SDS011;6730;46.248;6.930;2023-04-03T14:45:03;5.20;;;3.90;;
13321;SDS011;6730;46.248;6.930;2023-04-03T14:47:31;4.30;;;3.53;;
13321;SDS011;6730;46.248;6.930;2023-04-03T14:50:01;5.05;;;4.13;;
13321;SDS011;6730;46.248;6.930;2023-04-03T14:52:33;5.13;;;4.50;;
13321;SDS011;6730;46.248;6.930;2023-04-03T14:55:01;6.27;;;4.40;;
13321;SDS011;6730;46.248;6.930;2023-04-03T14:57:28;4.57;;;3.90;;
13321;SDS011;6730;46.248;6.930;2023-04-03T14:59:55;5.25;;;4.40;;
13321;SDS011;6730;46.248;6.930;2023-04-03T15:02:26;4.00;;;3.70;;
13321;SDS011;6730;46.248;6.930;2023-04-03T15:04:52;2.78;;;2.53;;
13321;SDS011;6730;46.248;6.930;2023-04-03T15:07:19;4.27;;;3.13;;
13321;SDS011;6730;46.248;6.930;2023-04-03T15:09:45;5.40;;;3.10;;
13321;SDS011;6730;46.248;6.930;2023-04-03T15:12:11;3.50;;;3.20;;
13321;SDS011;6730;46.248;6.930;2023-04-03T15:14:37;3.23;;;2.93;;
13321;SDS011;6730;46.248;6.930;2023-04-03T15:17:06;3.90;;;3.60;;
13321;SDS011;6730;46.248;6.930;2023-04-03T15:19:39;4.07;;;3.20;;
13321;SDS011;6730;46.248;6.930;2023-04-03T15:22:05;5.20;;;3.17;;
13321;SDS011;6730;46.248;6.930;2023-04-03T15:24:30;5.17;;;3.43;;
13321;SDS011;6730;46.248;6.930;2023-04-03T15:26:56;4.07;;;3.20;;
13321;SDS011;6730;46.248;6.930;2023-04-03T15:29:22;3.37;;;2.80;;
13321;SDS011;6730;46.248;6.930;2023-04-03T15:31:48;3.97;;;3.30;;
13321;SDS011;6730;46.248;6.930;2023-04-03T15:34:14;3.53;;;2.80;;
13321;SDS011;6730;46.248;6.930;2023-04-03T15:36:43;3.53;;;3.23;;
13321;SDS011;6730;46.248;6.930;2023-04-03T15:39:10;3.23;;;2.90;;
13321;SDS011;6730;46.248;6.930;2023-04-03T15:41:35;3.33;;;2.72;;
13321;SDS011;6730;46.248;6.930;2023-04-03T15:44:01;3.40;;;3.10;;
13321;SDS011;6730;46.248;6.930;2023-04-03T15:46:27;3.67;;;3.10;;
13321;SDS011;6730;46.248;6.930;2023-04-03T15:48:52;3.45;;;3.10;;
13321;SDS011;6730;46.248;6.930;2023-04-03T15:51:18;4.25;;;3.38;;
13321;SDS011;6730;46.248;6.930;2023-04-03T15:53:44;3.43;;;3.13;;
13321;SDS011;6730;46.248;6.930;2023-04-03T15:56:10;3.55;;;3.17;;
13321;SDS011;6730;46.248;6.930;2023-04-03T15:58:36;3.28;;;2.97;;
13321;SDS011;6730;46.248;6.930;2023-04-03T16:01:02;4.47;;;2.90;;
13321;SDS011;6730;46.248;6.930;2023-04-03T16:03:28;3.95;;;3.30;;
13321;SDS011;6730;46.248;6.930;2023-04-03T16:05:59;4.15;;;3.30;;
13321;SDS011;6730;46.248;6.930;2023-04-03T16:08:27;3.42;;;3.13;;
13321;SDS011;6730;46.248;6.930;2023-04-03T16:10:53;3.17;;;2.88;;
13321;SDS011;6730;46.248;6.930;2023-04-03T16:13:18;3.03;;;2.72;;
13321;SDS011;6730;46.248;6.930;2023-04-03T16:15:44;3.87;;;3.10;;
13321;SDS011;6730;46.248;6.930;2023-04-03T16:18:10;3.20;;;2.90;;
13321;SDS011;6730;46.248;6.930;2023-04-03T16:20:38;3.20;;;2.90;;
13321;SDS011;6730;46.248;6.930;2023-04-03T16:23:04;3.67;;;3.30;;
13321;SDS011;6730;46.248;6.930;2023-04-03T16:25:30;3.80;;;3.35;;
13321;SDS011;6730;46.248;6.930;2023-04-03T16:27:56;4.20;;;2.70;;
13321;SDS011;6730;46.248;6.930;2023-04-03T16:30:21;3.17;;;2.83;;
13321;SDS011;6730;46.248;6.930;2023-04-03T16:32:52;3.78;;;3.22;;
13321;SDS011;6730;46.248;6.930;2023-04-03T16:35:18;3.70;;;3.35;;
13321;SDS011;6730;46.248;6.930;2023-04-03T16:37:44;4.50;;;3.47;;
13321;SDS011;6730;46.248;6.930;2023-04-03T16:40:10;3.83;;;3.40;;
13321;SDS011;6730;46.248;6.930;2023-04-03T16:42:37;3.33;;;2.95;;
13321;SDS011;6730;46.248;6.930;2023-04-03T16:45:02;3.70;;;2.83;;
13321;SDS011;6730;46.248;6.930;2023-04-03T16:47:29;3.45;;;2.83;;
13321;SDS011;6730;46.248;6.930;2023-04-03T16:49:55;3.08;;;2.78;;
13321;SDS011;6730;46.248;6.930;2023-04-03T16:52:21;3.60;;;3.20;;
13321;SDS011;6730;46.248;6.930;2023-04-03T16:54:46;3.15;;;2.65;;
13321;SDS011;6730;46.248;6.930;2023-04-03T16:57:12;5.60;;;3.20;;
13321;SDS011;6730;46.248;6.930;2023-04-03T16:59:38;3.88;;;3.47;;
13321;SDS011;6730;46.248;6.930;2023-04-03T17:02:03;6.18;;;3.88;;
13321;SDS011;6730;46.248;6.930;2023-04-03T17:04:30;4.47;;;4.00;;
13321;SDS011;6730;46.248;6.930;2023-04-03T17:06:56;4.63;;;3.20;;
13321;SDS011;6730;46.248;6.930;2023-04-03T17:09:22;4.50;;;3.20;;
13321;SDS011;6730;46.248;6.930;2023-04-03T17:11:48;4.53;;;3.00;;
13321;SDS011;6730;46.248;6.930;2023-04-03T17:14:13;2.93;;;2.63;;